MSC Sinfonia — H8XH — position and weather

sailwx.info

Track history (hours):
 
Tides and Currents Weather Stations Pressure Air Temp Water Temp Dewpoint Dewpoint Depression Visibility Wind Speed Wind Dir Waves Ship Positions

MSC Sinfonia

Last reported at 2016-Aug-30 18:32 UTC. Time now 2016-Aug-30 18:56 UTC.
Position N 37°28' E 025°19'.

Length 251 m; draft 6.8 m.

Type: Passenger vessel. MMSI: 356715971.

Date/timePositionNaut miles runAvg speedWind from/ knotsBaromVisibWave heightAir tempDewpointWater temp
2016-Aug-30 18:32N 37°28' E 025°19'0 0.0
2016-Aug-30 17:32N 37°28' E 025°19'1 0.6
2016-Aug-30 16:33N 37°28' E 025°19'1212.2
2016-Aug-30 15:34N 37°16' E 025°15'1514.9
2016-Aug-30 14:34N 37°01' E 025°17'83 5.5
2016-Aug-29 23:33N 36°21' E 023°47'1717.4
2016-Aug-29 22:33N 36°21' E 023°26'65013.5
2016-Aug-27 22:33N 44°20' E 013°49'1919.2
2016-Aug-27 21:33N 44°36' E 013°34'2019.5
2016-Aug-27 20:33N 44°52' E 013°19'1919.0
2016-Aug-27 19:33N 45°05' E 012°59'1918.7
2016-Aug-27 18:34N 45°17' E 012°39'1514.5
2016-Aug-27 17:33N 45°26' E 012°23'3 3.2
2016-Aug-27 16:32N 45°26' E 012°18'0 0.0
2016-Aug-27 15:32N 45°26' E 012°18'0 0.0
2016-Aug-27 14:32N 45°26' E 012°18'0 0.0
2016-Aug-27 13:32N 45°26' E 012°18'0 0.0
2016-Aug-27 12:32N 45°26' E 012°18'0 0.0
2016-Aug-27 11:29N 45°26' E 012°18'0 0.0
2016-Aug-27 10:29N 45°26' E 012°18'0 0.0
2016-Aug-27 09:32N 45°26' E 012°18'0 0.0
2016-Aug-27 08:29N 45°26' E 012°18'0 0.0
2016-Aug-27 07:32N 45°26' E 012°18'0 0.0
2016-Aug-27 06:32N 45°26' E 012°18'9 4.6
2016-Aug-27 04:33N 45°23' E 012°31'1313.3
2016-Aug-27 03:33N 45°16' E 012°47'1010.4
2016-Aug-27 02:34N 45°07' E 012°55'1110.7
2016-Aug-27 01:33N 44°57' E 012°58'1110.7
2016-Aug-27 00:33N 44°46' E 013°02'1110.8
2016-Aug-26 23:33N 44°36' E 013°07'1111.0
2016-Aug-26 22:33N 44°26' E 013°11'2110.7
2016-Aug-26 20:33N 44°09' E 013°30'225 6.4
2016-Aug-25 09:24N 42°28' E 018°07'1517.3
2016-Aug-25 08:33N 42°14' E 018°13'42713.4
2016-Aug-24 00:33N 37°17' E 024°53'1817.8
2016-Aug-23 23:33N 37°27' E 025°11'7 6.5
2016-Aug-23 22:32N 37°28' E 025°19'0 0.0
2016-Aug-23 21:32N 37°28' E 025°19'0 0.0
2016-Aug-23 20:31N 37°28' E 025°19'0 0.0
2016-Aug-23 19:31N 37°28' E 025°19'0 0.0
2016-Aug-23 18:33N 37°28' E 025°19'0 0.0
2016-Aug-23 17:32N 37°28' E 025°19'1 1.2
2016-Aug-23 16:33N 37°28' E 025°18'1111.3
2016-Aug-23 15:33N 37°17' E 025°14'1615.8
2016-Aug-23 14:33N 37°01' E 025°17'235 9.0
2016-Aug-22 12:33N 37°54' E 020°29'48812.5
2016-Aug-20 21:33N 44°19' E 013°50'2016.8
2016-Aug-20 20:22N 44°36' E 013°35'1316.5
2016-Aug-20 19:34N 44°47' E 013°24'1616.2
2016-Aug-20 18:34N 44°59' E 013°09'  
Track history (hours):
 
Tides and Currents Weather Stations Pressure Air Temp Water Temp Dewpoint Dewpoint Depression Visibility Wind Speed Wind Dir Waves Ship Positions

MSC Sinfonia

Last reported at 2016-Aug-30 18:32 UTC. Time now 2016-Aug-30 18:56 UTC.
Position N 37°28' E 025°19'.

Length 251 m; draft 6.8 m.

Type: Passenger vessel. MMSI: 356715971.

Date/timePositionNaut miles runAvg speedWind from/ knotsBaromVisibWave heightAir tempDewpointWater temp
2016-Aug-30 18:32N 37°28' E 025°19'0 0.0
2016-Aug-30 17:32N 37°28' E 025°19'1 0.6
2016-Aug-30 16:33N 37°28' E 025°19'1212.2
2016-Aug-30 15:34N 37°16' E 025°15'1514.9
2016-Aug-30 14:34N 37°01' E 025°17'83 5.5
2016-Aug-29 23:33N 36°21' E 023°47'1717.4
2016-Aug-29 22:33N 36°21' E 023°26'65013.5
2016-Aug-27 22:33N 44°20' E 013°49'1919.2
2016-Aug-27 21:33N 44°36' E 013°34'2019.5
2016-Aug-27 20:33N 44°52' E 013°19'1919.0
2016-Aug-27 19:33N 45°05' E 012°59'1918.7
2016-Aug-27 18:34N 45°17' E 012°39'1514.5
2016-Aug-27 17:33N 45°26' E 012°23'3 3.2
2016-Aug-27 16:32N 45°26' E 012°18'0 0.0
2016-Aug-27 15:32N 45°26' E 012°18'0 0.0
2016-Aug-27 14:32N 45°26' E 012°18'0 0.0
2016-Aug-27 13:32N 45°26' E 012°18'0 0.0
2016-Aug-27 12:32N 45°26' E 012°18'0 0.0
2016-Aug-27 11:29N 45°26' E 012°18'0 0.0
2016-Aug-27 10:29N 45°26' E 012°18'0 0.0
2016-Aug-27 09:32N 45°26' E 012°18'0 0.0
2016-Aug-27 08:29N 45°26' E 012°18'0 0.0
2016-Aug-27 07:32N 45°26' E 012°18'0 0.0
2016-Aug-27 06:32N 45°26' E 012°18'9 4.6
2016-Aug-27 04:33N 45°23' E 012°31'1313.3
2016-Aug-27 03:33N 45°16' E 012°47'1010.4
2016-Aug-27 02:34N 45°07' E 012°55'1110.7
2016-Aug-27 01:33N 44°57' E 012°58'1110.7
2016-Aug-27 00:33N 44°46' E 013°02'1110.8
2016-Aug-26 23:33N 44°36' E 013°07'1111.0
2016-Aug-26 22:33N 44°26' E 013°11'2110.7
2016-Aug-26 20:33N 44°09' E 013°30'225 6.4
2016-Aug-25 09:24N 42°28' E 018°07'1517.3
2016-Aug-25 08:33N 42°14' E 018°13'42713.4
2016-Aug-24 00:33N 37°17' E 024°53'1817.8
2016-Aug-23 23:33N 37°27' E 025°11'7 6.5
2016-Aug-23 22:32N 37°28' E 025°19'0 0.0
2016-Aug-23 21:32N 37°28' E 025°19'0 0.0
2016-Aug-23 20:31N 37°28' E 025°19'0 0.0
2016-Aug-23 19:31N 37°28' E 025°19'0 0.0
2016-Aug-23 18:33N 37°28' E 025°19'0 0.0
2016-Aug-23 17:32N 37°28' E 025°19'1 1.2
2016-Aug-23 16:33N 37°28' E 025°18'1111.3
2016-Aug-23 15:33N 37°17' E 025°14'1615.8
2016-Aug-23 14:33N 37°01' E 025°17'235 9.0
2016-Aug-22 12:33N 37°54' E 020°29'48812.5
2016-Aug-20 21:33N 44°19' E 013°50'2016.8
2016-Aug-20 20:22N 44°36' E 013°35'1316.5
2016-Aug-20 19:34N 44°47' E 013°24'1616.2
2016-Aug-20 18:34N 44°59' E 013°09'  

Dump ship's entire track history